createdAt,value
2023-05-02T00:01:02.312Z,99.77
2023-05-02T00:03:48.860Z,100.00
2023-05-02T00:06:35.520Z,100.00
2023-05-02T00:09:22.264Z,97.64
2023-05-02T00:12:08.694Z,100.00
2023-05-02T00:14:54.999Z,97.86
2023-05-02T00:17:42.388Z,96.82
2023-05-02T00:20:29.127Z,94.34
2023-05-02T00:23:15.429Z,92.34
2023-05-02T00:26:01.709Z,84.10
2023-05-02T00:28:48.179Z,83.19
2023-05-02T00:31:35.924Z,83.35
2023-05-02T00:34:22.493Z,93.57
2023-05-02T00:37:08.957Z,93.57
2023-05-02T00:39:55.292Z,92.98
2023-05-02T00:42:41.487Z,100.00
2023-05-02T00:45:28.462Z,100.00
2023-05-02T00:48:14.928Z,95.37
2023-05-02T00:51:06.426Z,84.96
2023-05-02T00:53:53.032Z,79.45
2023-05-02T00:56:42.254Z,80.73
2023-05-02T00:59:28.797Z,80.43
2023-05-02T01:02:40.956Z,76.23
2023-05-02T01:05:51.140Z,73.43
2023-05-02T01:08:43.262Z,75.12
2023-05-02T01:11:49.611Z,74.00
2023-05-02T01:14:42.472Z,73.65
2023-05-02T01:17:32.653Z,70.28
2023-05-02T01:20:21.061Z,71.92
2023-05-02T01:23:25.472Z,69.22
2023-05-02T01:26:32.953Z,66.42
2023-05-02T01:29:20.843Z,64.43
2023-05-02T01:32:08.908Z,65.55
2023-05-02T01:34:56.613Z,65.06
2023-05-02T01:37:45.538Z,64.90
2023-05-02T01:40:33.488Z,64.49
2023-05-02T01:43:23.485Z,62.91
2023-05-02T01:46:10.711Z,62.19
2023-05-02T01:48:58.125Z,62.60
2023-05-02T01:51:47.360Z,62.82
2023-05-02T01:54:35.445Z,62.28
2023-05-02T01:57:22.381Z,62.50
2023-05-02T02:00:10.063Z,62.31
2023-05-02T02:02:58.981Z,62.00
2023-05-02T02:05:48.045Z,62.99
2023-05-02T02:08:34.262Z,61.76
2023-05-02T02:11:46.761Z,62.70
2023-05-02T02:14:46.823Z,62.99
2023-05-02T02:17:38.307Z,63.05
2023-05-02T02:20:25.452Z,63.47
2023-05-02T02:23:13.154Z,63.52
2023-05-02T02:26:01.521Z,64.51
2023-05-02T02:28:48.538Z,65.02
2023-05-02T02:31:36.142Z,65.85
2023-05-02T02:34:22.489Z,64.77
2023-05-02T02:37:18.651Z,64.94
2023-05-02T02:40:23.724Z,65.83
2023-05-02T02:43:13.415Z,66.52
2023-05-02T02:46:41.161Z,66.85
2023-05-02T02:49:53.447Z,67.07
2023-05-02T02:53:13.342Z,70.73
2023-05-02T02:56:05.063Z,68.10
2023-05-02T02:59:02.397Z,71.35
2023-05-02T03:02:08.980Z,70.50
2023-05-02T03:04:55.141Z,70.59
2023-05-02T03:07:42.944Z,73.02
2023-05-02T03:10:29.262Z,70.14
2023-05-02T03:13:15.471Z,70.19
2023-05-02T03:16:14.015Z,69.29
2023-05-02T03:19:00.483Z,69.29
2023-05-02T03:21:46.830Z,68.79
2023-05-02T03:24:34.201Z,70.02
2023-05-02T03:27:20.453Z,70.36
2023-05-02T03:30:07.801Z,70.68
2023-05-02T03:32:54.078Z,69.58
2023-05-02T03:35:42.802Z,70.76
2023-05-02T03:38:30.715Z,70.54
2023-05-02T03:41:18.459Z,72.50
2023-05-02T03:44:05.066Z,73.69
2023-05-02T03:46:51.838Z,74.78
2023-05-02T03:49:37.918Z,75.45
2023-05-02T03:52:24.650Z,75.93
2023-05-02T03:55:11.994Z,81.37
2023-05-02T03:57:59.597Z,78.39
2023-05-02T04:00:45.910Z,78.44
2023-05-02T04:03:32.723Z,76.96
2023-05-02T04:06:20.271Z,79.59
2023-05-02T04:09:06.915Z,80.45
2023-05-02T04:11:53.056Z,79.61
2023-05-02T04:14:39.543Z,78.29
2023-05-02T04:17:25.975Z,78.33
2023-05-02T04:20:12.580Z,76.81
2023-05-02T04:23:00.231Z,76.88
2023-05-02T04:25:54.107Z,79.32
2023-05-02T04:28:40.753Z,77.74
2023-05-02T04:31:28.051Z,76.87
2023-05-02T04:34:15.004Z,77.42
2023-05-02T04:37:01.822Z,76.57
2023-05-02T04:39:47.871Z,78.23
2023-05-02T04:42:35.381Z,79.18
2023-05-02T04:45:22.722Z,77.43
2023-05-02T04:48:10.518Z,77.73
2023-05-02T04:50:57.268Z,77.33
2023-05-02T04:53:43.575Z,77.81
2023-05-02T04:56:29.877Z,77.65
2023-05-02T04:59:16.943Z,77.68
2023-05-02T05:02:03.743Z,76.94
2023-05-02T05:04:50.218Z,74.15
2023-05-02T05:07:37.588Z,75.31
2023-05-02T05:10:24.445Z,76.27
2023-05-02T05:13:12.655Z,75.77
2023-05-02T05:15:59.327Z,75.08
2023-05-02T05:18:46.483Z,72.79
2023-05-02T05:21:33.879Z,75.77
2023-05-02T05:24:20.387Z,75.55
2023-05-02T05:27:07.181Z,74.48
2023-05-02T05:29:53.656Z,73.65
2023-05-02T05:32:40.280Z,73.00
2023-05-02T05:35:26.671Z,72.91
2023-05-02T05:38:14.469Z,72.85
2023-05-02T05:41:01.545Z,72.64
2023-05-02T05:43:48.154Z,74.34
2023-05-02T05:46:34.631Z,74.54
2023-05-02T05:49:22.189Z,74.98
2023-05-02T05:52:08.907Z,74.25
2023-05-02T05:54:58.643Z,74.33
2023-05-02T05:57:44.888Z,75.21
2023-05-02T06:00:31.269Z,71.79
2023-05-02T06:03:17.588Z,74.45
2023-05-02T06:06:04.873Z,73.41
2023-05-02T06:08:51.286Z,71.10
2023-05-02T06:11:38.277Z,69.58
2023-05-02T06:14:25.313Z,71.88
2023-05-02T06:17:12.217Z,73.16
2023-05-02T06:19:58.623Z,69.51
2023-05-02T06:22:45.036Z,72.41
2023-05-02T06:25:33.956Z,69.74
2023-05-02T06:28:23.475Z,74.42
2023-05-02T06:31:09.626Z,71.53
2023-05-02T06:33:56.027Z,70.99
2023-05-02T06:36:42.283Z,70.38
2023-05-02T06:39:28.663Z,72.11
2023-05-02T06:42:14.935Z,73.21
2023-05-02T06:45:01.280Z,70.65
2023-05-02T06:47:47.766Z,69.93
2023-05-02T06:50:34.661Z,69.43
2023-05-02T06:53:21.260Z,68.86
2023-05-02T06:56:07.407Z,68.20
2023-05-02T06:58:53.957Z,70.02
2023-05-02T07:01:40.207Z,68.01
2023-05-02T07:04:29.887Z,66.15
2023-05-02T07:07:18.943Z,68.44
2023-05-02T07:10:06.123Z,67.71
2023-05-02T07:12:52.493Z,69.09
2023-05-02T07:15:39.062Z,66.84
2023-05-02T07:18:25.425Z,63.69
2023-05-02T07:21:12.464Z,65.29
2023-05-02T07:23:59.015Z,67.74
2023-05-02T07:26:45.924Z,65.65
2023-05-02T07:29:31.987Z,62.35
2023-05-02T07:32:18.488Z,62.36
2023-05-02T07:35:04.912Z,66.06
2023-05-02T07:37:51.733Z,64.64
2023-05-02T07:40:38.260Z,65.05
2023-05-02T07:43:24.944Z,64.42
2023-05-02T07:46:11.188Z,65.52
2023-05-02T07:48:57.517Z,65.46
2023-05-02T07:51:45.767Z,64.44
2023-05-02T07:54:32.191Z,62.07
2023-05-02T07:57:23.578Z,62.12
2023-05-02T08:00:10.643Z,60.56
2023-05-02T08:03:00.235Z,62.20
2023-05-02T08:05:47.089Z,62.41
2023-05-02T08:08:33.396Z,57.87
2023-05-02T08:11:23.360Z,60.52
2023-05-02T08:14:10.314Z,60.61
2023-05-02T08:16:56.571Z,58.11
2023-05-02T08:19:42.850Z,57.80
2023-05-02T08:22:29.145Z,57.88
2023-05-02T08:25:15.319Z,54.74
2023-05-02T08:28:01.754Z,54.92
2023-05-02T08:30:49.085Z,57.00
2023-05-02T08:33:35.714Z,53.87
2023-05-02T08:36:24.560Z,55.99
2023-05-02T08:39:11.757Z,54.44
2023-05-02T08:41:58.097Z,56.24
2023-05-02T08:44:44.522Z,57.57
2023-05-02T08:47:32.485Z,55.18
2023-05-02T08:50:19.300Z,53.26
2023-05-02T08:53:07.180Z,53.09
2023-05-02T08:55:54.255Z,56.47
2023-05-02T08:58:41.221Z,57.23
2023-05-02T09:01:30.826Z,56.33
2023-05-02T09:04:19.620Z,54.33
2023-05-02T09:07:06.158Z,53.21
2023-05-02T09:09:52.609Z,54.78
2023-05-02T09:12:39.020Z,52.62
2023-05-02T09:15:25.160Z,55.35
2023-05-02T09:18:20.088Z,53.00
2023-05-02T09:21:09.071Z,51.03
2023-05-02T09:23:57.746Z,51.96
2023-05-02T09:26:45.394Z,52.99
2023-05-02T09:29:37.989Z,52.27
2023-05-02T09:32:47.499Z,51.05
2023-05-02T09:35:33.760Z,49.51
2023-05-02T09:38:23.149Z,48.80
2023-05-02T09:41:10.732Z,48.60
2023-05-02T09:43:57.817Z,49.31
2023-05-02T09:46:49.689Z,51.22
2023-05-02T09:49:41.767Z,48.78
2023-05-02T09:52:28.306Z,48.62
2023-05-02T09:55:21.810Z,48.01
2023-05-02T09:58:21.494Z,46.37
2023-05-02T10:01:07.768Z,47.77
2023-05-02T10:03:54.348Z,47.65
2023-05-02T10:06:41.355Z,45.52
2023-05-02T10:09:29.477Z,45.04
2023-05-02T10:12:16.894Z,44.20
2023-05-02T10:15:04.593Z,43.73
2023-05-02T10:17:52.113Z,45.66
2023-05-02T10:20:44.750Z,44.45
2023-05-02T10:23:31.221Z,43.12
2023-05-02T10:26:17.634Z,44.21
2023-05-02T10:29:04.245Z,42.06
2023-05-02T10:31:51.141Z,41.92
2023-05-02T10:34:37.125Z,42.64
2023-05-02T10:37:25.613Z,44.97
2023-05-02T10:40:12.894Z,43.90
2023-05-02T10:42:59.185Z,43.50
2023-05-02T10:45:45.638Z,42.18
2023-05-02T10:48:32.452Z,44.00
2023-05-02T10:51:29.539Z,44.71
2023-05-02T10:54:25.036Z,43.33
2023-05-02T10:57:11.422Z,43.87
2023-05-02T11:00:25.174Z,42.03
2023-05-02T11:03:11.499Z,44.98
2023-05-02T11:06:08.024Z,44.04
2023-05-02T11:09:18.553Z,41.94
2023-05-02T11:12:05.316Z,43.22
2023-05-02T11:14:51.776Z,43.79
2023-05-02T11:18:01.327Z,43.96
2023-05-02T11:20:47.543Z,43.27
2023-05-02T11:23:36.923Z,42.75
2023-05-02T11:26:23.246Z,42.77
2023-05-02T11:29:10.148Z,43.41
2023-05-02T11:31:56.329Z,43.85
2023-05-02T11:34:43.112Z,43.47
2023-05-02T11:37:29.898Z,44.36
2023-05-02T11:40:16.743Z,41.04
2023-05-02T11:43:13.401Z,41.05
2023-05-02T11:46:01.912Z,41.18
2023-05-02T11:48:48.799Z,38.47
2023-05-02T11:51:35.575Z,38.65
2023-05-02T11:54:22.021Z,38.20
2023-05-02T11:57:08.736Z,38.73
2023-05-02T11:59:57.230Z,36.89
2023-05-02T12:02:45.223Z,37.32
2023-05-02T12:05:32.542Z,37.17
2023-05-02T12:08:29.002Z,38.38
2023-05-02T12:11:16.673Z,39.75
2023-05-02T12:14:04.007Z,39.85
2023-05-02T12:16:50.717Z,39.55
2023-05-02T12:19:38.068Z,37.34
2023-05-02T12:22:25.607Z,41.42
2023-05-02T12:25:12.194Z,38.29
2023-05-02T12:27:59.914Z,38.52
2023-05-02T12:30:49.603Z,36.58
2023-05-02T12:33:43.492Z,36.15
2023-05-02T12:36:29.881Z,35.38
2023-05-02T12:39:16.703Z,37.47
2023-05-02T12:42:13.654Z,37.14
2023-05-02T12:45:00.572Z,38.41
2023-05-02T12:47:46.766Z,39.12
2023-05-02T12:50:39.339Z,39.03
2023-05-02T12:53:41.821Z,37.92
2023-05-02T12:56:32.810Z,38.75
2023-05-02T12:59:32.835Z,40.24
2023-05-02T13:02:19.135Z,40.63
2023-05-02T13:05:15.869Z,38.24
2023-05-02T13:08:02.760Z,38.73
2023-05-02T13:10:49.237Z,37.64
2023-05-02T13:13:35.781Z,40.29
2023-05-02T13:16:22.311Z,38.17
2023-05-02T13:19:08.923Z,38.03
2023-05-02T13:21:55.522Z,37.93
2023-05-02T13:24:41.746Z,39.78
2023-05-02T13:27:28.330Z,38.38
2023-05-02T13:30:14.734Z,39.82
2023-05-02T13:33:01.221Z,39.51
2023-05-02T13:35:47.583Z,39.43
2023-05-02T13:38:34.737Z,38.60
2023-05-02T13:41:21.666Z,37.96
2023-05-02T13:44:09.281Z,38.20
2023-05-02T13:46:56.909Z,40.20
2023-05-02T13:49:43.646Z,40.34
2023-05-02T13:52:30.721Z,38.35
2023-05-02T13:55:17.236Z,41.17
2023-05-02T13:58:03.835Z,39.47
2023-05-02T14:00:50.386Z,39.78
2023-05-02T14:03:36.716Z,39.60
2023-05-02T14:06:23.052Z,40.17
2023-05-02T14:09:09.296Z,39.46
2023-05-02T14:12:16.410Z,40.19
2023-05-02T14:15:03.099Z,39.90
2023-05-02T14:17:49.899Z,40.96
2023-05-02T14:20:36.468Z,39.36
2023-05-02T14:23:22.855Z,39.02
2023-05-02T14:26:09.541Z,41.21
2023-05-02T14:28:56.892Z,40.89
2023-05-02T14:31:43.446Z,40.80
2023-05-02T14:34:29.617Z,41.63
2023-05-02T14:37:16.199Z,39.86
2023-05-02T14:40:03.134Z,40.77
2023-05-02T14:42:50.204Z,39.74
2023-05-02T14:45:36.589Z,40.86
2023-05-02T14:48:23.084Z,41.12
2023-05-02T14:51:09.245Z,41.41
2023-05-02T14:53:55.691Z,40.62
2023-05-02T14:56:42.398Z,40.53
2023-05-02T14:59:29.811Z,40.47
2023-05-02T15:02:16.273Z,40.98
2023-05-02T15:05:08.028Z,41.01
2023-05-02T15:07:54.059Z,40.61
2023-05-02T15:10:40.450Z,41.29
2023-05-02T15:13:26.424Z,40.72
2023-05-02T15:16:12.840Z,41.13
2023-05-02T15:18:58.865Z,41.33
2023-05-02T15:21:45.384Z,40.67
2023-05-02T15:24:31.603Z,40.22
2023-05-02T15:27:19.120Z,41.13
2023-05-02T15:30:07.435Z,41.37
2023-05-02T15:32:54.354Z,41.21
2023-05-02T15:35:40.543Z,43.20
2023-05-02T15:38:27.995Z,41.37
2023-05-02T15:41:14.170Z,42.87
2023-05-02T15:44:00.951Z,43.18
2023-05-02T15:46:47.334Z,45.83
2023-05-02T15:49:34.577Z,49.76
2023-05-02T15:52:21.443Z,49.46
2023-05-02T15:55:08.378Z,52.50
2023-05-02T15:57:54.555Z,51.62
2023-05-02T16:00:40.913Z,50.87
2023-05-02T16:03:27.574Z,53.88
2023-05-02T16:06:15.959Z,55.69
2023-05-02T16:09:03.750Z,55.92
2023-05-02T16:11:50.293Z,56.27
2023-05-02T16:14:36.926Z,55.88
2023-05-02T16:17:25.267Z,56.34
2023-05-02T16:20:12.937Z,56.33
2023-05-02T16:23:00.062Z,56.50
2023-05-02T16:25:46.328Z,57.42
2023-05-02T16:28:32.730Z,57.41
2023-05-02T16:31:19.112Z,57.32
2023-05-02T16:34:05.591Z,57.25
2023-05-02T16:36:53.040Z,56.76
2023-05-02T16:39:40.028Z,56.30
2023-05-02T16:42:27.118Z,56.68
2023-05-02T16:45:14.614Z,56.83
2023-05-02T16:48:01.133Z,59.11
2023-05-02T16:50:47.567Z,58.90
2023-05-02T16:53:33.920Z,57.92
2023-05-02T16:56:20.305Z,58.46
2023-05-02T16:59:06.737Z,57.70
2023-05-02T17:01:53.139Z,58.17
2023-05-02T17:04:39.847Z,59.52
2023-05-02T17:07:26.417Z,57.78
2023-05-02T17:10:12.914Z,61.22
2023-05-02T17:12:59.425Z,64.34
2023-05-02T17:15:45.749Z,67.43
2023-05-02T17:18:34.178Z,68.14
2023-05-02T17:21:30.935Z,78.00
2023-05-02T17:24:16.808Z,75.71
2023-05-02T17:27:03.448Z,73.80
2023-05-02T17:29:49.873Z,84.73
2023-05-02T17:32:37.629Z,90.55
2023-05-02T17:35:24.181Z,86.23
2023-05-02T17:38:10.649Z,87.63
2023-05-02T17:40:57.145Z,89.78
2023-05-02T17:43:43.876Z,100.00
2023-05-02T17:46:31.067Z,100.00
2023-05-02T17:49:17.789Z,99.90
2023-05-02T17:52:05.472Z,100.00
2023-05-02T17:54:51.905Z,100.00
2023-05-02T17:57:38.100Z,100.00
2023-05-02T18:00:24.740Z,100.00
2023-05-02T18:03:11.505Z,100.00
2023-05-02T18:05:57.784Z,100.00
2023-05-02T18:08:44.835Z,100.00
2023-05-02T18:11:32.184Z,100.00
2023-05-02T18:14:19.236Z,100.00
2023-05-02T18:17:08.387Z,100.00
2023-05-02T18:19:56.152Z,100.00
2023-05-02T18:22:42.816Z,100.00
2023-05-02T18:25:28.930Z,100.00
2023-05-02T18:28:14.994Z,100.00
2023-05-02T18:31:01.380Z,100.00
2023-05-02T18:33:47.787Z,100.00
2023-05-02T18:36:34.083Z,100.00
2023-05-02T18:39:21.551Z,100.00
2023-05-02T18:42:08.373Z,100.00
2023-05-02T18:44:54.712Z,100.00
2023-05-02T18:47:41.219Z,100.00
2023-05-02T18:50:27.846Z,100.00
2023-05-02T18:53:15.554Z,100.00
2023-05-02T18:56:02.199Z,100.00
2023-05-02T18:58:49.089Z,100.00
2023-05-02T19:01:35.637Z,100.00
2023-05-02T19:04:23.436Z,100.00
2023-05-02T19:07:09.834Z,100.00
2023-05-02T19:09:56.305Z,100.00
2023-05-02T19:12:43.892Z,100.00
2023-05-02T19:15:30.665Z,100.00
2023-05-02T19:18:17.242Z,100.00
2023-05-02T19:21:13.967Z,100.00
2023-05-02T19:24:00.195Z,100.00
2023-05-02T19:26:46.955Z,100.00
2023-05-02T19:29:33.756Z,100.00
2023-05-02T19:32:22.625Z,100.00
2023-05-02T19:35:09.223Z,100.00
2023-05-02T19:37:56.210Z,100.00
2023-05-02T19:40:42.499Z,100.00
2023-05-02T19:43:31.337Z,100.00
2023-05-02T19:46:18.277Z,100.00
2023-05-02T19:49:04.398Z,100.00
2023-05-02T19:51:50.935Z,100.00
2023-05-02T19:54:37.430Z,100.00
2023-05-02T19:57:23.630Z,100.00
2023-05-02T20:00:10.560Z,100.00
2023-05-02T20:02:58.655Z,100.00
2023-05-02T20:05:44.867Z,100.00
2023-05-02T20:08:31.556Z,100.00
2023-05-02T20:11:18.262Z,100.00
2023-05-02T20:14:04.818Z,100.00
2023-05-02T20:16:51.212Z,100.00
2023-05-02T20:19:37.529Z,100.00
2023-05-02T20:22:24.336Z,100.00
2023-05-02T20:25:15.963Z,100.00
2023-05-02T20:28:02.284Z,100.00
2023-05-02T20:30:48.632Z,100.00
2023-05-02T20:33:44.641Z,100.00
2023-05-02T20:36:32.249Z,100.00
2023-05-02T20:39:21.601Z,100.00
2023-05-02T20:42:08.666Z,100.00
2023-05-02T20:44:59.765Z,100.00
2023-05-02T20:47:47.088Z,100.00
2023-05-02T20:50:33.865Z,100.00
2023-05-02T20:53:22.418Z,100.00
2023-05-02T20:56:10.747Z,100.00
2023-05-02T20:58:56.898Z,100.00
2023-05-02T21:01:43.062Z,100.00
2023-05-02T21:04:29.406Z,100.00
2023-05-02T21:07:15.903Z,100.00
2023-05-02T21:10:02.458Z,100.00
2023-05-02T21:12:49.243Z,100.00
2023-05-02T21:15:36.111Z,100.00
2023-05-02T21:18:22.753Z,100.00
2023-05-02T21:21:09.145Z,100.00
2023-05-02T21:23:56.275Z,100.00
2023-05-02T21:26:42.696Z,100.00
2023-05-02T21:29:29.116Z,100.00
2023-05-02T21:32:15.571Z,100.00
2023-05-02T21:35:02.158Z,100.00
2023-05-02T21:37:48.263Z,100.00
2023-05-02T21:40:38.596Z,100.00
2023-05-02T21:43:24.491Z,100.00
2023-05-02T21:46:11.771Z,100.00
2023-05-02T21:48:58.019Z,100.00
2023-05-02T21:51:44.291Z,100.00
2023-05-02T21:54:30.716Z,100.00
2023-05-02T21:57:18.008Z,100.00
2023-05-02T22:00:05.834Z,100.00
2023-05-02T22:02:52.075Z,100.00
2023-05-02T22:05:41.315Z,100.00
2023-05-02T22:08:27.553Z,100.00
2023-05-02T22:11:15.322Z,100.00
2023-05-02T22:14:01.792Z,100.00
2023-05-02T22:16:48.140Z,100.00
2023-05-02T22:19:34.426Z,100.00
2023-05-02T22:22:20.817Z,100.00
2023-05-02T22:25:07.414Z,100.00
2023-05-02T22:27:53.793Z,100.00
2023-05-02T22:30:42.914Z,100.00
2023-05-02T22:33:29.466Z,100.00
2023-05-02T22:36:18.664Z,100.00
2023-05-02T22:39:08.978Z,100.00
2023-05-02T22:41:55.151Z,100.00
2023-05-02T22:44:52.935Z,100.00
2023-05-02T22:47:40.348Z,100.00
2023-05-02T22:50:27.500Z,100.00
2023-05-02T22:53:13.766Z,100.00
2023-05-02T22:56:00.062Z,100.00
2023-05-02T22:58:47.291Z,100.00
2023-05-02T23:01:34.073Z,100.00
2023-05-02T23:04:21.321Z,100.00
2023-05-02T23:07:07.680Z,100.00
2023-05-02T23:09:54.104Z,100.00
2023-05-02T23:12:41.986Z,100.00
2023-05-02T23:15:28.251Z,100.00
2023-05-02T23:18:14.639Z,100.00
2023-05-02T23:21:00.974Z,100.00
2023-05-02T23:23:47.335Z,100.00
2023-05-02T23:26:33.623Z,100.00
2023-05-02T23:29:20.076Z,100.00
2023-05-02T23:32:08.144Z,100.00
2023-05-02T23:34:55.438Z,100.00
2023-05-02T23:37:41.336Z,100.00
2023-05-02T23:40:28.199Z,100.00
2023-05-02T23:43:14.592Z,100.00
2023-05-02T23:46:00.854Z,100.00
2023-05-02T23:48:47.296Z,100.00
2023-05-02T23:51:33.733Z,100.00
2023-05-02T23:54:20.213Z,100.00
2023-05-02T23:57:08.249Z,100.00
2023-05-02T23:59:54.774Z,100.00
